Time;durP1;ratioP1;P1;durP2;ratioP2;P2;SDS_P1;SDS_P2;PMS_P1;PMS_P2;Temp;Humidity;BMP_temperature;BMP_pressure;BME280_temperature;BME280_humidity;BME280_pressure;Samples;Min_cycle;Max_cycle;Signal;HPM_P1;HPM_P2
2023/06/14 00:02:08;;;;;;;0.00;0.00;;;;;;;15.23;64.38;100481.72;5050125;28;20183;-75
2023/06/14 00:04:34;;;;;;;0.00;0.00;;;;;;;15.30;64.35;100479.19;5050715;28;20554;-76
2023/06/14 00:07:00;;;;;;;0.00;0.00;;;;;;;15.28;64.25;100484.22;5051034;28;20194;-76
2023/06/14 00:09:25;;;;;;;0.00;0.00;;;;;;;15.27;64.49;100479.88;5050283;28;20645;-76
2023/06/14 00:11:50;;;;;;;0.00;0.00;;;;;;;15.07;64.18;100481.56;5050457;28;20187;-76
2023/06/14 00:14:16;;;;;;;0.00;0.00;;;;;;;14.95;64.84;100498.03;5050648;28;20199;-75
2023/06/14 00:16:42;;;;;;;0.00;0.00;;;;;;;14.96;65.51;100496.88;5050836;28;20240;-76
2023/06/14 00:19:08;;;;;;;0.20;0.20;;;;;;;15.06;65.40;100496.47;5048610;28;20695;-75
2023/06/14 00:21:34;;;;;;;0.00;0.00;;;;;;;14.91;65.41;100500.66;5050809;28;20221;-76
2023/06/14 00:24:01;;;;;;;0.00;0.00;;;;;;;14.89;65.50;100502.94;5050663;28;20813;-76
2023/06/14 00:26:26;;;;;;;0.00;0.00;;;;;;;14.85;65.68;100504.75;5050599;28;20206;-75
2023/06/14 00:28:52;;;;;;;0.10;0.10;;;;;;;14.91;65.71;100500.66;5050491;28;20214;-76
2023/06/14 00:31:18;;;;;;;0.00;0.00;;;;;;;14.87;65.66;100507.97;5050283;28;20257;-76
2023/06/14 00:33:43;;;;;;;0.00;0.00;;;;;;;14.65;66.09;100503.66;5050170;28;20230;-75
2023/06/14 00:36:08;;;;;;;0.00;0.00;;;;;;;14.62;66.26;100509.84;5050792;28;20603;-75
2023/06/14 00:38:34;;;;;;;0.00;0.00;;;;;;;14.61;66.44;100502.72;5050358;28;20194;-76
2023/06/14 00:40:59;;;;;;;0.00;0.00;;;;;;;14.56;66.42;100500.16;5050108;28;20598;-75
2023/06/14 00:43:25;;;;;;;0.00;0.00;;;;;;;14.54;66.59;100508.75;5048997;28;20286;-75
2023/06/14 00:45:51;;;;;;;0.00;0.00;;;;;;;14.53;66.70;100498.09;5050549;28;20190;-76
2023/06/14 00:48:17;;;;;;;0.00;0.00;;;;;;;14.55;66.78;100507.63;5050064;28;20175;-75
2023/06/14 00:50:45;;;;;;;0.00;0.00;;;;;;;14.61;66.89;100504.66;5050043;28;20186;-75
2023/06/14 00:53:11;;;;;;;0.00;0.00;;;;;;;14.66;66.65;100509.97;5050193;28;20689;-76
2023/06/14 00:55:37;;;;;;;0.00;0.00;;;;;;;14.66;66.66;100509.97;5050232;28;20194;-75
2023/06/14 00:58:03;;;;;;;0.17;0.17;;;;;;;14.66;66.56;100510.75;5050119;28;20198;-75
2023/06/14 01:00:28;;;;;;;0.00;0.00;;;;;;;14.62;66.89;100512.59;5049755;28;20290;-76
2023/06/14 01:02:54;;;;;;;0.00;0.00;;;;;;;14.59;66.77;100513.22;5049912;28;20265;-76
2023/06/14 01:05:20;;;;;;;0.00;0.00;;;;;;;14.37;67.27;100513.56;5050145;28;20238;-75
2023/06/14 01:08:11;;;;;;;0.00;0.00;;;;;;;14.23;67.72;100511.06;5050162;28;20186;-75
2023/06/14 01:11:01;;;;;;;0.27;0.27;;;;;;;14.24;67.75;100512.69;5049995;28;20217;-75
2023/06/14 01:13:39;;;;;;;0.00;0.00;;;;;;;14.08;68.09;100509.72;5051417;28;20280;-75
2023/06/14 01:16:06;;;;;;;0.00;0.00;;;;;;;13.99;68.51;100519.94;5052695;28;20183;-75
2023/06/14 01:18:32;;;;;;;0.00;0.00;;;;;;;13.93;68.91;100515.78;5053747;28;20183;-75
2023/06/14 01:20:57;;;;;;;0.00;0.00;;;;;;;13.70;69.50;100523.50;5053594;28;20573;-75
2023/06/14 01:23:25;;;;;;;0.50;0.50;;;;;;;13.90;69.22;100519.22;5053580;28;20211;-74
2023/06/14 01:25:55;;;;;;;0.00;0.00;;;;;;;13.96;69.37;100521.41;5050417;28;20187;-75
2023/06/14 01:28:21;;;;;;;0.30;0.30;;;;;;;13.97;68.93;100520.28;5052562;28;20182;-75
2023/06/14 01:30:54;;;;;;;0.00;0.00;;;;;;;13.89;68.76;100523.09;5053548;28;20556;-74
2023/06/14 01:33:27;;;;;;;0.20;0.20;;;;;;;13.80;69.38;100525.88;5052139;28;20208;-75
2023/06/14 01:35:54;;;;;;;0.00;0.00;;;;;;;13.74;69.94;100521.69;5053569;28;20202;-75
2023/06/14 01:38:24;;;;;;;0.00;0.00;;;;;;;13.55;70.58;100522.09;5053390;28;20179;-75
2023/06/14 01:40:51;;;;;;;0.00;0.00;;;;;;;13.63;70.55;100520.47;5053113;28;20582;-75
2023/06/14 01:43:17;;;;;;;0.00;0.00;;;;;;;13.48;70.62;100519.09;5053240;28;20203;-75
2023/06/14 01:45:45;;;;;;;0.00;0.00;;;;;;;13.50;70.79;100522.28;5052332;28;20183;-75
2023/06/14 01:48:11;;;;;;;0.00;0.00;;;;;;;13.54;70.64;100523.25;5053175;28;20211;-75
2023/06/14 01:50:37;;;;;;;0.00;0.00;;;;;;;13.42;71.07;100525.88;5052959;28;20693;-75
2023/06/14 01:53:02;;;;;;;0.00;0.00;;;;;;;13.52;71.33;100531.00;5053045;28;20211;-75
2023/06/14 01:55:27;;;;;;;0.00;0.00;;;;;;;13.58;71.00;100526.13;5053194;28;20549;-75
2023/06/14 01:57:53;;;;;;;0.00;0.00;;;;;;;13.45;71.39;100532.63;5053045;28;20209;-75
2023/06/14 02:00:19;;;;;;;0.00;0.00;;;;;;;13.42;71.44;100530.56;5052866;28;20689;-75
2023/06/14 02:02:45;;;;;;;0.00;0.00;;;;;;;13.42;71.73;100528.63;5052870;28;20202;-75
2023/06/14 02:05:11;;;;;;;0.00;0.00;;;;;;;13.46;71.65;100526.84;5052985;28;20189;-75
2023/06/14 02:07:36;;;;;;;0.00;0.00;;;;;;;13.46;72.03;100526.84;5052680;28;20182;-73
2023/06/14 02:10:05;;;;;;;0.00;0.00;;;;;;;13.35;72.17;100525.59;5052535;28;20175;-75
2023/06/14 02:12:30;;;;;;;0.00;0.00;;;;;;;13.50;72.18;100529.72;5052666;28;20199;-74
2023/06/14 02:14:56;;;;;;;0.00;0.00;;;;;;;13.50;72.07;100527.78;5052933;28;20590;-75
2023/06/14 02:17:22;;;;;;;0.00;0.00;;;;;;;13.48;71.90;100535.56;5052548;28;20214;-75
2023/06/14 02:19:48;;;;;;;0.73;0.73;;;;;;;13.53;72.11;100531.81;5052191;28;20261;-75
2023/06/14 02:22:14;;;;;;;0.00;0.00;;;;;;;13.60;72.22;100527.44;5051126;28;20324;-75
2023/06/14 02:24:40;;;;;;;0.00;0.00;;;;;;;13.62;71.68;100527.91;5052476;28;20214;-76
2023/06/14 02:27:06;;;;;;;0.40;0.40;;;;;;;13.65;71.96;100529.97;5052438;28;20645;-75
2023/06/14 02:29:31;;;;;;;0.00;0.00;;;;;;;13.58;71.67;100528.88;5051999;28;20175;-74
2023/06/14 02:31:57;;;;;;;0.00;0.00;;;;;;;13.44;71.94;100531.81;5052341;28;20270;-75
2023/06/14 02:34:22;;;;;;;0.20;0.20;;;;;;;13.25;72.36;100526.72;5051031;28;20211;-75
2023/06/14 02:36:48;;;;;;;0.00;0.00;;;;;;;13.09;72.66;100536.59;5052422;28;20186;-75
2023/06/14 02:39:13;;;;;;;0.00;0.00;;;;;;;12.93;73.49;100532.75;5051762;28;20294;-75
2023/06/14 02:41:39;;;;;;;0.00;0.00;;;;;;;12.83;74.13;100550.31;5052340;28;20190;-75
2023/06/14 02:44:04;;;;;;;0.00;0.00;;;;;;;12.74;75.22;100557.78;5052254;28;20198;-75
2023/06/14 02:46:30;;;;;;;0.00;0.00;;;;;;;12.74;75.63;100558.56;5052217;28;20552;-74
2023/06/14 02:48:55;;;;;;;0.00;0.00;;;;;;;12.70;75.88;100560.31;5052075;28;20273;-75
2023/06/14 02:51:20;;;;;;;0.20;0.20;;;;;;;12.64;75.93;100558.09;5051642;28;20221;-75
2023/06/14 02:53:46;;;;;;;0.00;0.00;;;;;;;12.63;76.37;100561.94;5052109;28;20302;-75
2023/06/14 02:56:11;;;;;;;0.10;0.10;;;;;;;12.57;76.69;100561.28;5052001;28;20659;-75
2023/06/14 02:58:37;;;;;;;0.00;0.00;;;;;;;12.40;76.61;100566.75;5051720;28;20244;-74
2023/06/14 03:01:05;;;;;;;0.00;0.00;;;;;;;12.26;76.67;100568.84;5051542;28;20218;-73
2023/06/14 03:03:31;;;;;;;0.00;0.00;;;;;;;12.12;77.82;100566.22;5051798;28;20868;-75
2023/06/14 03:05:57;;;;;;;0.00;0.00;;;;;;;12.03;78.60;100568.16;5051788;28;20185;-75
2023/06/14 03:08:26;;;;;;;0.00;0.00;;;;;;;12.06;79.02;100572.97;5051709;28;20648;-75
2023/06/14 03:10:53;;;;;;;0.00;0.00;;;;;;;12.07;79.49;100566.38;5051828;28;20196;-75
2023/06/14 03:13:22;;;;;;;0.00;0.00;;;;;;;12.03;79.93;100571.69;5051530;28;20203;-75
2023/06/14 03:15:49;;;;;;;0.00;0.00;;;;;;;12.05;79.78;100577.66;5051454;28;20194;-75
2023/06/14 03:18:15;;;;;;;0.00;0.00;;;;;;;12.05;79.96;100576.84;5051365;28;20186;-75
2023/06/14 03:20:42;;;;;;;0.00;0.00;;;;;;;11.98;79.69;100585.50;5051372;28;20210;-75
2023/06/14 03:23:08;;;;;;;0.00;0.00;;;;;;;11.92;79.90;100584.06;5050021;28;20211;-73
2023/06/14 03:25:35;;;;;;;0.00;0.00;;;;;;;11.84;80.65;100591.09;5051578;28;20190;-75
2023/06/14 03:28:03;;;;;;;0.00;0.00;;;;;;;11.90;81.14;100595.31;5051319;28;20642;-75
2023/06/14 03:30:32;;;;;;;0.00;0.00;;;;;;;11.99;81.62;100594.53;5050925;28;20190;-75
2023/06/14 03:33:00;;;;;;;0.00;0.00;;;;;;;12.04;81.63;100587.00;5051061;28;20203;-75
2023/06/14 03:35:27;;;;;;;0.00;0.00;;;;;;;12.09;81.83;100597.78;5051288;28;20183;-74
2023/06/14 03:37:52;;;;;;;0.00;0.00;;;;;;;12.22;81.58;100590.59;5050359;28;20183;-74
2023/06/14 03:40:19;;;;;;;0.00;0.00;;;;;;;12.33;81.17;100588.34;5050753;28;20666;-75
2023/06/14 03:42:45;;;;;;;0.00;0.00;;;;;;;12.40;80.63;100602.38;5050976;28;20203;-75
2023/06/14 03:45:10;;;;;;;0.00;0.00;;;;;;;12.46;80.41;100604.66;5051070;28;20267;-75
2023/06/14 03:47:36;;;;;;;0.00;0.00;;;;;;;12.52;80.21;100605.31;5050779;28;20320;-75
2023/06/14 03:50:05;;;;;;;0.00;0.00;;;;;;;12.39;79.89;100607.06;5050762;28;20190;-75
2023/06/14 03:52:31;;;;;;;0.00;0.00;;;;;;;12.37;80.43;100612.06;5051027;28;20235;-75
2023/06/14 03:54:56;;;;;;;0.00;0.00;;;;;;;12.57;79.94;100620.78;5051050;28;20392;-75
2023/06/14 03:57:23;;;;;;;0.67;0.67;;;;;;;12.59;79.43;100615.81;5050733;28;20665;-75
2023/06/14 03:59:48;;;;;;;0.00;0.00;;;;;;;12.33;80.22;100616.56;5050315;28;20819;-75
2023/06/14 04:02:17;;;;;;;0.00;0.00;;;;;;;12.42;81.00;100622.03;5050474;28;20265;-75
2023/06/14 04:04:46;;;;;;;0.10;0.10;;;;;;;12.42;80.94;100620.09;5049361;28;20248;-75
2023/06/14 04:07:12;;;;;;;0.07;0.07;;;;;;;12.46;80.52;100623.84;5050545;28;20665;-74
2023/06/14 04:09:39;;;;;;;0.53;0.53;;;;;;;12.23;80.24;100618.78;5050054;28;20183;-75
2023/06/14 04:12:05;;;;;;;0.00;0.00;;;;;;;12.09;81.07;100621.63;5050619;28;20210;-74
2023/06/14 04:14:32;;;;;;;0.00;0.00;;;;;;;12.06;82.02;100616.81;5050501;28;20203;-75
2023/06/14 04:16:58;;;;;;;0.00;0.00;;;;;;;12.06;82.49;100617.59;5050895;28;20193;-74
2023/06/14 04:19:23;;;;;;;0.20;0.20;;;;;;;12.12;82.38;100626.47;5050101;28;20697;-75
2023/06/14 04:21:48;;;;;;;0.00;0.00;;;;;;;12.32;81.57;100612.22;5050519;28;20187;-75
2023/06/14 04:24:16;;;;;;;0.00;0.00;;;;;;;12.29;81.24;100620.22;5050577;28;20206;-75
2023/06/14 04:26:44;;;;;;;0.00;0.00;;;;;;;12.22;82.05;100628.94;5050723;28;20179;-75
2023/06/14 04:29:14;;;;;;;0.17;0.17;;;;;;;12.12;82.04;100631.94;5049923;28;20257;-75
2023/06/14 04:31:39;;;;;;;0.57;0.57;;;;;;;12.16;82.52;100635.69;5050372;28;20236;-75
2023/06/14 04:34:05;;;;;;;0.77;0.77;;;;;;;12.33;82.52;100641.22;5050439;28;20293;-75
2023/06/14 04:36:34;;;;;;;0.00;0.00;;;;;;;12.49;82.56;100636.09;5050588;28;20190;-74
2023/06/14 04:39:00;;;;;;;0.00;0.00;;;;;;;12.59;82.36;100646.78;5042501;28;20198;-75
2023/06/14 04:41:30;;;;;;;13.00;1.60;;;;;;;12.71;81.64;100648.84;5041736;28;20191;-75
2023/06/14 04:43:57;;;;;;;0.00;0.00;;;;;;;12.81;81.50;100652.09;5050281;28;20260;-74
2023/06/14 04:46:22;;;;;;;0.30;0.30;;;;;;;12.81;81.30;100654.84;5050435;28;20184;-75
2023/06/14 04:48:47;;;;;;;0.00;0.00;;;;;;;12.86;81.81;100662.09;5052519;28;20281;-75
2023/06/14 04:51:13;;;;;;;0.00;0.00;;;;;;;12.94;81.83;100666.00;5054169;28;20183;-75
2023/06/14 04:53:38;;;;;;;0.00;0.00;;;;;;;13.06;81.39;100663.41;5054204;28;20681;-76
2023/06/14 04:56:04;;;;;;;0.10;0.10;;;;;;;13.15;80.99;100660.66;5054398;28;20182;-75
2023/06/14 04:58:30;;;;;;;0.00;0.00;;;;;;;13.23;81.25;100652.47;5053757;28;20205;-76
2023/06/14 05:00:56;;;;;;;0.10;0.10;;;;;;;13.28;80.72;100663.28;5053909;28;20206;-76
2023/06/14 05:03:23;;;;;;;0.00;0.00;;;;;;;13.30;81.19;100658.25;5055224;28;20229;-78
2023/06/14 05:05:50;;;;;;;0.00;0.00;;;;;;;13.47;80.68;100654.72;5057105;28;20175;-76
2023/06/14 05:08:15;;;;;;;0.00;0.00;;;;;;;13.59;80.45;100665.81;5047010;28;20183;-75
2023/06/14 05:10:41;;;;;;;0.00;0.00;;;;;;;13.79;80.52;100672.56;5052358;28;20700;-75
2023/06/14 05:13:06;;;;;;;0.00;0.00;;;;;;;13.78;79.74;100670.16;5053577;28;20207;-73
2023/06/14 05:15:32;;;;;;;0.00;0.00;;;;;;;13.86;79.47;100672.84;5054023;28;20183;-75
2023/06/14 05:17:57;;;;;;;0.53;0.10;;;;;;;13.92;78.79;100670.75;5052509;28;20657;-75
2023/06/14 05:20:26;;;;;;;0.13;0.13;;;;;;;13.92;78.21;100676.25;5053392;28;20598;-74
2023/06/14 05:22:54;;;;;;;0.00;0.00;;;;;;;14.02;78.21;100675.06;5053772;28;20207;-75
2023/06/14 05:25:20;;;;;;;1.10;0.90;;;;;;;14.16;77.71;100681.16;5053539;28;20262;-75
2023/06/14 05:27:46;;;;;;;0.00;0.00;;;;;;;14.23;77.07;100678.72;5052248;28;20564;-75
2023/06/14 05:30:13;;;;;;;0.30;0.30;;;;;;;14.22;77.12;100675.16;5053264;28;20186;-75
2023/06/14 05:32:39;;;;;;;0.50;0.20;;;;;;;14.35;76.58;100672.53;5053465;28;20198;-76
2023/06/14 05:35:05;;;;;;;0.47;0.30;;;;;;;14.38;76.06;100669.09;5053657;28;20265;-76
2023/06/14 05:37:31;;;;;;;0.40;0.40;;;;;;;14.42;75.62;100675.53;5052581;28;20193;-76
2023/06/14 05:39:56;;;;;;;0.10;0.10;;;;;;;14.30;75.34;100671.53;5053005;28;20274;-76
2023/06/14 05:42:21;;;;;;;0.00;0.00;;;;;;;14.50;75.73;100677.47;5053129;28;20187;-76
2023/06/14 05:44:47;;;;;;;1.57;1.47;;;;;;;14.46;74.66;100674.56;5053630;28;20719;-76
2023/06/14 05:47:12;;;;;;;0.20;0.20;;;;;;;14.45;74.74;100681.22;5052020;28;20198;-76
2023/06/14 05:49:37;;;;;;;3.70;0.60;;;;;;;14.56;75.04;100685.19;5052836;28;20263;-76
2023/06/14 05:52:03;;;;;;;0.20;0.20;;;;;;;14.68;74.51;100683.69;5053156;28;20183;-76
2023/06/14 05:54:28;;;;;;;0.63;0.63;;;;;;;14.87;74.59;100684.03;5053007;28;20739;-75
2023/06/14 05:56:54;;;;;;;0.60;0.60;;;;;;;14.90;74.58;100691.63;5052985;28;20218;-76
2023/06/14 05:59:19;;;;;;;0.33;0.30;;;;;;;14.92;74.80;100696.81;5051824;28;20496;-76
2023/06/14 06:01:44;;;;;;;0.10;0.10;;;;;;;14.84;74.37;100695.72;5052795;28;20194;-76
2023/06/14 06:04:10;;;;;;;2.97;0.37;;;;;;;15.08;74.67;100697.81;5052998;28;20217;-76
2023/06/14 06:06:35;;;;;;;0.73;0.73;;;;;;;15.14;73.80;100696.47;5051820;28;20183;-76
2023/06/14 06:09:01;;;;;;;0.60;0.60;;;;;;;15.20;73.10;100684.13;5052485;28;20179;-75
2023/06/14 06:11:26;;;;;;;1.50;0.50;;;;;;;15.34;73.37;100690.16;5052757;28;20175;-75
2023/06/14 06:13:51;;;;;;;0.60;0.53;;;;;;;15.35;73.40;100690.97;5052864;28;20218;-76
2023/06/14 06:16:17;;;;;;;2.27;2.17;;;;;;;15.45;72.97;100698.78;5052819;28;20649;-74
2023/06/14 06:18:42;;;;;;;0.40;0.40;;;;;;;15.61;73.30;100696.25;5052684;28;20275;-76
2023/06/14 06:21:07;;;;;;;0.60;0.60;;;;;;;15.68;73.04;100700.06;5052331;28;20230;-76
2023/06/14 06:23:32;;;;;;;0.50;0.40;;;;;;;15.57;72.28;100692.53;5052785;28;20685;-76
2023/06/14 06:25:58;;;;;;;1.60;0.67;;;;;;;15.77;72.87;100703.53;5052485;28;20183;-76
2023/06/14 06:28:23;;;;;;;1.20;1.10;;;;;;;15.72;71.73;100691.91;5052655;28;20186;-75
2023/06/14 06:30:48;;;;;;;0.50;0.50;;;;;;;15.72;71.48;100698.22;5051049;28;20202;-76
2023/06/14 06:33:14;;;;;;;0.73;0.73;;;;;;;15.63;71.66;100702.25;5052307;28;20203;-76
2023/06/14 06:35:40;;;;;;;0.90;0.33;;;;;;;15.70;72.25;100706.03;5051488;28;20557;-76
2023/06/14 06:38:05;;;;;;;0.73;0.73;;;;;;;15.73;71.40;100708.09;5052473;28;20703;-75
2023/06/14 06:40:31;;;;;;;2.57;0.30;;;;;;;15.85;71.44;100706.53;5047460;28;20211;-76
2023/06/14 06:42:56;;;;;;;0.43;0.23;;;;;;;15.80;71.55;100704.81;5052333;28;20210;-74
2023/06/14 06:45:23;;;;;;;2.50;2.37;;;;;;;16.09;72.08;100709.34;5051223;28;20179;-76
2023/06/14 06:47:48;;;;;;;2.40;2.20;;;;;;;16.24;70.40;100705.13;5052190;28;20258;-75
2023/06/14 06:50:14;;;;;;;0.40;0.40;;;;;;;16.18;69.04;100712.81;5052015;28;20202;-76
2023/06/14 06:52:39;;;;;;;0.20;0.20;;;;;;;16.27;69.51;100718.22;5052125;28;20203;-76
2023/06/14 06:55:05;;;;;;;0.67;0.67;;;;;;;16.24;69.75;100719.72;5051935;28;20186;-75
2023/06/14 06:57:30;;;;;;;0.97;0.87;;;;;;;16.51;69.42;100726.53;5051950;28;20283;-77
2023/06/14 06:59:55;;;;;;;0.90;0.90;;;;;;;16.36;68.03;100714.22;5046803;28;20199;-76
2023/06/14 07:02:21;;;;;;;0.13;0.13;;;;;;;16.54;68.05;100720.31;5044583;28;20191;-75
2023/06/14 07:04:46;;;;;;;0.43;0.43;;;;;;;16.68;68.79;100733.00;5051952;28;20250;-76
2023/06/14 07:07:11;;;;;;;1.73;0.23;;;;;;;16.86;68.92;100726.88;5051782;28;20278;-76
2023/06/14 07:09:37;;;;;;;0.00;0.00;;;;;;;16.94;68.00;100730.69;5051324;28;20186;-75
2023/06/14 07:12:02;;;;;;;0.40;0.40;;;;;;;16.79;66.55;100721.16;5051679;28;20609;-76
2023/06/14 07:14:28;;;;;;;0.77;0.77;;;;;;;16.85;66.90;100727.22;5048477;28;20199;-76
2023/06/14 07:16:54;;;;;;;1.50;1.40;;;;;;;16.79;65.19;100714.81;5051777;28;20529;-77
2023/06/14 07:19:19;;;;;;;1.03;0.97;;;;;;;16.89;65.11;100723.41;5051172;28;20213;-77
2023/06/14 07:21:45;;;;;;;0.43;0.43;;;;;;;16.74;65.09;100724.13;5051760;28;20210;-77
2023/06/14 07:24:10;;;;;;;0.77;0.77;;;;;;;16.77;64.65;100731.69;5034786;28;20257;-77
2023/06/14 07:26:35;;;;;;;0.57;0.47;;;;;;;16.90;64.17;100730.53;5046399;28;20262;-75
2023/06/14 07:29:01;;;;;;;0.17;0.17;;;;;;;17.05;63.69;100737.31;5048577;28;20252;-78
2023/06/14 07:31:27;;;;;;;0.10;0.10;;;;;;;17.28;64.11;100734.03;5053140;28;20277;-79
2023/06/14 07:33:52;;;;;;;0.20;0.20;;;;;;;17.19;63.88;100737.72;5041796;28;20227;-78
2023/06/14 07:36:17;;;;;;;5.53;0.70;;;;;;;16.97;63.89;100729.97;5054122;28;20187;-81
2023/06/14 07:38:43;;;;;;;0.20;0.20;;;;;;;17.32;64.30;100740.47;5048477;28;20566;-81
2023/06/14 07:41:09;;;;;;;0.60;0.60;;;;;;;17.31;63.67;100728.63;5051702;28;20225;-80
2023/06/14 07:43:34;;;;;;;1.10;0.80;;;;;;;17.43;64.36;100738.84;5052792;28;20697;-76
2023/06/14 07:46:00;;;;;;;0.10;0.10;;;;;;;17.21;64.03;100729.94;5051438;28;20618;-82
2023/06/14 07:48:26;;;;;;;0.00;0.00;;;;;;;17.12;65.09;100732.00;5052206;28;20183;-80
2023/06/14 07:50:51;;;;;;;0.83;0.70;;;;;;;17.32;65.67;100744.03;5044239;28;20181;-82
2023/06/14 07:53:16;;;;;;;1.40;1.30;;;;;;;17.12;64.17;100729.25;5051626;28;20222;-78
2023/06/14 07:55:43;;;;;;;0.20;0.20;;;;;;;17.40;64.61;100745.88;5052995;28;20186;-76
2023/06/14 07:58:09;;;;;;;0.53;0.53;;;;;;;17.31;63.74;100725.06;5052538;28;20202;-77
2023/06/14 08:00:34;;;;;;;0.97;0.93;;;;;;;17.31;64.15;100736.09;5055556;28;20788;-77
2023/06/14 08:03:00;;;;;;;1.30;0.90;;;;;;;17.37;63.72;100732.75;5055914;28;20202;-76
2023/06/14 08:05:26;;;;;;;1.00;0.93;;;;;;;17.46;63.63;100738.13;5047366;28;20186;-75
2023/06/14 08:07:52;;;;;;;0.30;0.20;;;;;;;17.91;63.92;100745.34;5055752;28;20202;-77
2023/06/14 08:10:17;;;;;;;0.20;0.20;;;;;;;17.51;63.21;100741.47;5048050;28;20184;-76
2023/06/14 08:12:43;;;;;;;0.30;0.30;;;;;;;17.86;63.48;100749.16;5055478;28;20245;-77
2023/06/14 08:15:08;;;;;;;1.50;0.73;;;;;;;17.73;63.05;100736.56;5049979;28;20186;-77
2023/06/14 08:17:34;;;;;;;0.20;0.20;;;;;;;17.79;63.59;100732.38;5055139;28;20183;-77
2023/06/14 08:19:59;;;;;;;0.77;0.73;;;;;;;17.94;63.46;100739.94;5050344;28;20211;-77
2023/06/14 08:22:25;;;;;;;0.97;0.77;;;;;;;17.83;62.36;100738.81;5054001;28;20179;-77
2023/06/14 08:24:52;;;;;;;1.50;1.40;;;;;;;17.93;61.77;100731.97;5051558;28;20206;-77
2023/06/14 08:27:18;;;;;;;1.13;1.03;;;;;;;18.06;61.06;100730.72;5055478;28;20677;-76
2023/06/14 08:29:43;;;;;;;0.63;0.40;;;;;;;18.22;61.23;100737.09;5046820;28;20185;-77
2023/06/14 08:32:09;;;;;;;1.53;1.20;;;;;;;18.00;60.21;100729.41;5053256;28;20224;-77
2023/06/14 08:34:34;;;;;;;0.00;0.00;;;;;;;18.22;61.93;100744.56;5056528;28;20257;-76
2023/06/14 08:37:00;;;;;;;1.27;0.53;;;;;;;18.53;60.87;100735.50;5056150;28;20190;-77
2023/06/14 08:39:25;;;;;;;0.57;0.57;;;;;;;18.29;60.14;100734.50;5055130;28;20324;-76
2023/06/14 08:41:52;;;;;;;2.63;1.13;;;;;;;18.30;59.44;100729.78;5055090;28;20649;-76
2023/06/14 08:44:18;;;;;;;0.20;0.20;;;;;;;18.09;59.50;100730.84;5055164;28;20199;-76
2023/06/14 08:46:43;;;;;;;0.13;0.13;;;;;;;18.28;60.04;100740.41;5052649;28;20286;-76
2023/06/14 08:49:12;;;;;;;0.20;0.20;;;;;;;18.46;60.75;100741.66;5051324;28;20197;-77
2023/06/14 08:51:38;;;;;;;0.97;0.97;;;;;;;18.35;59.83;100738.59;5053166;28;20179;-76
2023/06/14 08:54:04;;;;;;;0.90;0.70;;;;;;;18.51;59.51;100740.56;5052433;28;20252;-75
2023/06/14 08:56:31;;;;;;;0.00;0.00;;;;;;;18.73;59.18;100739.97;5053712;28;20190;-77
2023/06/14 08:59:01;;;;;;;0.20;0.20;;;;;;;18.99;58.82;100739.38;5052903;28;20241;-77
2023/06/14 09:01:26;;;;;;;1.10;0.70;;;;;;;18.66;56.78;100721.25;5053430;28;20183;-77
2023/06/14 09:03:54;;;;;;;0.30;0.30;;;;;;;18.82;58.22;100737.03;5052952;28;20285;-76
2023/06/14 09:06:22;;;;;;;0.63;0.63;;;;;;;18.61;56.89;100721.47;5053106;28;20266;-76
2023/06/14 09:08:48;;;;;;;0.40;0.40;;;;;;;18.36;57.25;100739.41;5053000;28;20182;-75
2023/06/14 09:11:18;;;;;;;0.10;0.10;;;;;;;18.21;58.02;100732.72;5053744;28;20206;-75
2023/06/14 09:13:44;;;;;;;1.10;1.10;;;;;;;18.44;59.00;100747.53;5054757;28;20688;-77
2023/06/14 09:16:10;;;;;;;0.43;0.37;;;;;;;19.03;59.01;100752.16;5054479;28;20215;-77
2023/06/14 09:18:37;;;;;;;0.10;0.10;;;;;;;19.40;57.26;100746.25;5051766;28;20333;-77
2023/06/14 09:21:02;;;;;;;0.87;0.83;;;;;;;18.79;55.42;100730.22;5052331;28;20623;-76
2023/06/14 09:23:28;;;;;;;1.03;1.03;;;;;;;18.64;56.08;100736.56;5050698;28;20199;-77
2023/06/14 09:25:53;;;;;;;0.30;0.30;;;;;;;18.71;56.65;100737.56;5051785;28;20282;-77
2023/06/14 09:28:22;;;;;;;0.90;0.90;;;;;;;19.20;56.17;100748.16;5051195;28;20233;-76
2023/06/14 09:30:47;;;;;;;0.00;0.00;;;;;;;19.05;56.49;100753.75;5051900;28;20213;-77
2023/06/14 09:33:17;;;;;;;0.17;0.17;;;;;;;19.08;56.23;100748.28;5051840;28;20207;-76
2023/06/14 09:35:45;;;;;;;2.30;0.90;;;;;;;19.35;56.00;100752.03;5053763;28;20807;-77
2023/06/14 09:38:11;;;;;;;0.80;0.23;;;;;;;19.34;55.57;100747.66;5056662;28;20180;-76
2023/06/14 09:40:36;;;;;;;1.37;1.30;;;;;;;19.09;55.27;100746.31;5055440;28;20203;-76
2023/06/14 09:43:06;;;;;;;0.23;0.23;;;;;;;19.34;55.71;100755.97;5055726;28;20285;-76
2023/06/14 09:45:32;;;;;;;0.70;0.70;;;;;;;19.25;55.20;100736.81;5056427;28;20220;-77
2023/06/14 09:47:58;;;;;;;0.80;0.80;;;;;;;19.21;54.46;100735.13;5056313;28;20224;-76
2023/06/14 09:50:23;;;;;;;0.23;0.23;;;;;;;19.17;54.39;100734.25;5055291;28;20670;-76
2023/06/14 09:52:54;;;;;;;1.17;0.93;;;;;;;19.47;54.51;100737.25;5056715;28;20279;-77
2023/06/14 09:55:20;;;;;;;0.40;0.40;;;;;;;19.83;54.61;100736.03;5056377;28;20520;-76
2023/06/14 09:57:49;;;;;;;0.10;0.10;;;;;;;19.83;53.84;100722.19;5055761;28;20214;-77
2023/06/14 10:00:18;;;;;;;1.03;0.83;;;;;;;19.76;53.57;100722.84;5056461;28;20233;-77
2023/06/14 10:02:50;;;;;;;0.30;0.30;;;;;;;19.74;53.00;100718.81;5056009;28;20214;-77
2023/06/14 10:05:20;;;;;;;0.17;0.17;;;;;;;19.82;54.34;100720.56;5040468;28;20192;-77
2023/06/14 10:07:53;;;;;;;0.33;0.33;;;;;;;19.90;53.59;100722.31;5057659;28;20180;-77
2023/06/14 10:10:18;;;;;;;0.20;0.20;;;;;;;20.27;54.67;100735.66;5057951;28;20188;-77
2023/06/14 10:12:44;;;;;;;0.03;0.03;;;;;;;20.60;53.90;100729.50;5058031;28;20207;-77
2023/06/14 10:15:19;;;;;;;0.50;0.50;;;;;;;20.70;52.34;100714.97;5058097;28;20183;-77
2023/06/14 10:17:52;;;;;;;0.20;0.20;;;;;;;20.54;51.46;100715.09;5057496;28;20774;-77
2023/06/14 10:20:45;;;;;;;0.97;0.97;;;;;;;20.01;51.70;100701.13;5057172;28;20246;-77
2023/06/14 10:23:16;;;;;;;0.33;0.33;;;;;;;20.41;51.37;100702.59;5054854;28;20618;-77
2023/06/14 10:25:42;;;;;;;0.60;0.60;;;;;;;20.61;50.82;100706.91;5057283;28;20559;-77
2023/06/14 10:28:27;;;;;;;0.30;0.30;;;;;;;20.50;49.33;100700.38;5055847;28;20184;-76
2023/06/14 10:31:13;;;;;;;0.77;0.77;;;;;;;20.76;50.82;100711.50;5056194;28;20171;-77
2023/06/14 10:33:52;;;;;;;0.30;0.30;;;;;;;21.13;50.52;100701.72;5054547;28;20723;-76
2023/06/14 10:36:32;;;;;;;0.13;0.13;;;;;;;21.26;50.00;100698.31;5056041;28;20188;-75
2023/06/14 10:39:11;;;;;;;0.00;0.00;;;;;;;21.17;50.58;100702.56;5055053;28;20192;-76
2023/06/14 10:41:38;;;;;;;0.20;0.20;;;;;;;21.60;50.62;100706.69;5056184;28;20225;-77
2023/06/14 10:44:12;;;;;;;0.10;0.10;;;;;;;21.98;50.10;100702.72;5056205;28;20207;-77
2023/06/14 10:46:58;;;;;;;0.60;0.60;;;;;;;22.09;48.20;100700.06;5056733;28;20194;-77
2023/06/14 10:49:44;;;;;;;0.43;0.33;;;;;;;21.61;47.60;100677.69;5056336;28;20228;-77
2023/06/14 10:52:18;;;;;;;0.00;0.00;;;;;;;21.61;48.81;100667.38;5055511;28;20233;-76
2023/06/14 10:55:05;;;;;;;0.20;0.20;;;;;;;21.59;48.50;100671.72;5056103;28;20183;-77
2023/06/14 10:57:47;;;;;;;0.83;0.83;;;;;;;21.18;48.20;100660.50;5056559;28;20187;-76
2023/06/14 11:00:17;;;;;;;1.07;0.90;;;;;;;21.49;48.80;100669.63;5057328;28;20353;-76
2023/06/14 11:03:08;;;;;;;1.03;0.90;;;;;;;21.69;49.88;100666.25;5056690;28;20207;-77
2023/06/14 11:05:49;;;;;;;0.63;0.50;;;;;;;21.24;49.07;100660.94;5056528;28;20172;-77
2023/06/14 11:08:26;;;;;;;1.00;1.00;;;;;;;20.98;49.47;100653.50;5054830;28;20263;-77
2023/06/14 11:10:58;;;;;;;5.07;0.40;;;;;;;21.35;49.69;100673.81;5056647;28;20211;-75
2023/06/14 11:13:25;;;;;;;1.27;0.50;;;;;;;21.51;49.10;100667.25;5056357;28;20708;-76
2023/06/14 11:15:52;;;;;;;0.10;0.10;;;;;;;21.36;49.18;100669.06;5056422;28;20187;-77
2023/06/14 11:18:18;;;;;;;0.10;0.10;;;;;;;21.55;49.26;100663.31;5045517;28;20183;-76
2023/06/14 11:20:46;;;;;;;0.00;0.00;;;;;;;21.75;50.52;100674.28;5053402;28;20581;-78
2023/06/14 11:23:11;;;;;;;0.63;0.63;;;;;;;21.33;49.21;100656.72;5038824;28;20202;-77
2023/06/14 11:25:36;;;;;;;0.20;0.20;;;;;;;21.50;50.80;100665.66;5046950;28;20177;-77